Time;durP1;ratioP1;P1;durP2;ratioP2;P2;SDS_P1;SDS_P2;PMS_P1;PMS_P2;Temp;Humidity;BMP_temperature;BMP_pressure;BME280_temperature;BME280_humidity;BME280_pressure;Samples;Min_cycle;Max_cycle;Signal;HPM_P1;HPM_P2
2022/08/31 00:04:11;;;;;;;9.68;6.95;;;;;;;19.24;63.04;99014.00;4787671;29;20492;-79
2022/08/31 00:06:38;;;;;;;10.45;6.75;;;;;;;19.17;63.48;99016.16;4767741;29;20047;-79
2022/08/31 00:09:06;;;;;;;13.30;7.18;;;;;;;19.11;63.60;99020.00;4788622;29;20043;-79
2022/08/31 00:11:34;;;;;;;11.98;6.55;;;;;;;19.08;63.95;99019.34;4766627;29;20079;-79
2022/08/31 00:14:06;;;;;;;15.52;7.53;;;;;;;18.98;63.93;99007.59;4793346;29;20058;-79
2022/08/31 00:16:36;;;;;;;12.00;7.35;;;;;;;19.02;64.31;99019.66;4774524;29;20047;-79
2022/08/31 00:19:02;;;;;;;13.93;7.53;;;;;;;18.91;64.41;99015.81;4790089;29;20074;-80
2022/08/31 00:21:29;;;;;;;13.02;6.93;;;;;;;18.93;64.67;99016.56;4765900;29;20576;-81
2022/08/31 00:23:55;;;;;;;13.88;7.07;;;;;;;18.87;64.60;99001.09;4787525;29;20123;-79
2022/08/31 00:26:22;;;;;;;14.13;7.20;;;;;;;19.02;64.73;99022.31;4788491;29;21097;-80
2022/08/31 00:28:49;;;;;;;12.88;7.60;;;;;;;19.00;64.74;99016.28;4790073;29;20055;-80
2022/08/31 00:31:17;;;;;;;10.27;7.10;;;;;;;19.02;64.78;99017.03;4788371;29;20043;-80
2022/08/31 00:33:51;;;;;;;13.52;7.07;;;;;;;19.01;64.81;99012.69;4783000;29;20059;-79
2022/08/31 00:36:20;;;;;;;12.52;7.50;;;;;;;19.01;64.79;99016.16;4788423;29;20055;-80
2022/08/31 00:38:50;;;;;;;12.18;7.15;;;;;;;19.06;64.65;99023.84;4767711;29;20043;-78
2022/08/31 00:41:19;;;;;;;13.88;7.00;;;;;;;19.04;64.91;99023.06;4788508;29;20129;-79
2022/08/31 00:43:53;;;;;;;10.80;6.30;;;;;;;18.98;64.99;99024.25;4766447;29;20047;-78
2022/08/31 00:46:22;;;;;;;10.10;6.82;;;;;;;18.93;64.98;99028.91;4791528;29;20043;-79
2022/08/31 00:48:54;;;;;;;10.77;6.32;;;;;;;18.94;65.17;99033.25;4783511;29;20070;-81
2022/08/31 00:51:21;;;;;;;11.65;6.65;;;;;;;18.80;65.23;99023.47;4789912;29;20040;-79
2022/08/31 00:53:47;;;;;;;12.48;6.55;;;;;;;18.81;65.42;99028.66;4800631;29;20063;-79
2022/08/31 00:56:14;;;;;;;9.88;7.05;;;;;;;18.75;65.58;99028.13;4792955;29;20092;-80
2022/08/31 00:58:42;;;;;;;10.30;6.07;;;;;;;18.71;65.53;99030.09;4783299;29;20106;-78
2022/08/31 01:01:10;;;;;;;13.23;6.72;;;;;;;18.64;65.55;99034.00;4780583;29;20138;-79
2022/08/31 01:03:36;;;;;;;12.55;6.90;;;;;;;18.45;65.96;99013.94;4787914;29;20054;-78
2022/08/31 01:06:03;;;;;;;7.78;6.10;;;;;;;18.51;66.03;99033.81;4805396;29;20047;-78
2022/08/31 01:08:30;;;;;;;8.45;6.20;;;;;;;18.45;66.25;99032.38;4785543;29;20051;-80
2022/08/31 01:10:56;;;;;;;11.20;6.43;;;;;;;18.32;66.28;99029.53;4794479;29;20103;-79
2022/08/31 01:13:22;;;;;;;11.70;6.53;;;;;;;18.28;66.41;99027.16;4792982;29;20054;-80
2022/08/31 01:15:54;;;;;;;9.18;6.10;;;;;;;18.26;66.81;99026.38;4787026;29;20419;-80
2022/08/31 01:18:22;;;;;;;10.25;6.07;;;;;;;18.19;66.97;99031.13;4794466;29;20142;-78
2022/08/31 01:21:00;;;;;;;10.75;6.45;;;;;;;18.14;67.01;99031.34;4783241;29;20051;-78
2022/08/31 01:23:32;;;;;;;10.00;6.97;;;;;;;18.08;67.15;99022.94;4788847;29;20059;-80
2022/08/31 01:25:58;;;;;;;;;;;;;;;18.05;67.38;99021.31;4783279;29;20047;-79
2022/08/31 01:28:25;;;;;;;9.18;6.38;;;;;;;17.90;67.33;99007.97;4785968;29;19953;-79
2022/08/31 01:31:05;;;;;;;9.70;6.30;;;;;;;17.96;67.59;99024.38;4781690;29;20070;-79
2022/08/31 01:33:34;;;;;;;9.70;6.47;;;;;;;17.82;67.57;99006.66;4755521;29;20069;-78
2022/08/31 01:36:00;;;;;;;12.15;6.55;;;;;;;17.87;67.79;99020.44;4770834;29;20508;-78
2022/08/31 01:38:27;;;;;;;11.80;6.72;;;;;;;17.74;67.82;99014.97;4785960;29;20054;-77
2022/08/31 01:40:58;;;;;;;11.00;6.47;;;;;;;17.74;67.94;99021.09;4786537;29;20142;-79
2022/08/31 01:43:24;;;;;;;10.00;6.15;;;;;;;17.70;68.21;99024.81;4785161;29;20377;-79
2022/08/31 01:45:51;;;;;;;13.35;6.70;;;;;;;17.63;68.48;99009.41;4787965;29;20043;-78
2022/08/31 01:48:17;;;;;;;9.57;6.75;;;;;;;17.49;68.50;98991.69;4777708;29;20809;-79
2022/08/31 01:50:45;;;;;;;8.88;6.75;;;;;;;17.58;68.88;99018.38;4767574;29;20082;-79
2022/08/31 01:53:12;;;;;;;9.55;7.03;;;;;;;17.50;68.75;99002.13;4786561;29;20043;-79
2022/08/31 01:55:38;;;;;;;10.93;7.30;;;;;;;17.46;69.06;99011.09;4788167;29;20445;-80
2022/08/31 01:58:04;;;;;;;10.70;7.55;;;;;;;17.39;69.18;98999.19;4767448;29;20059;-78
2022/08/31 02:00:52;;;;;;;10.88;6.72;;;;;;;17.37;69.49;98996.63;4796972;29;20060;-79
2022/08/31 02:03:18;;;;;;;11.98;7.10;;;;;;;17.32;69.61;99001.28;4756403;29;20635;-79
2022/08/31 02:05:44;;;;;;;13.18;7.50;;;;;;;17.33;69.79;99010.00;4786388;29;20168;-80
2022/08/31 02:08:10;;;;;;;11.63;7.50;;;;;;;17.26;70.07;98998.94;4782929;29;20149;-80
2022/08/31 02:10:37;;;;;;;12.85;7.25;;;;;;;17.30;70.03;99009.22;4779808;29;20090;-80
2022/08/31 02:13:04;;;;;;;11.60;7.07;;;;;;;17.27;70.23;99008.53;4771065;29;20070;-78
2022/08/31 02:15:31;;;;;;;14.65;7.93;;;;;;;17.13;70.30;98988.19;4766223;29;20051;-80
2022/08/31 02:17:58;;;;;;;12.88;7.72;;;;;;;17.19;70.35;99002.78;4770869;29;20039;-80
2022/08/31 02:20:25;;;;;;;13.45;7.43;;;;;;;17.09;70.50;98998.00;4785967;29;20200;-79
2022/08/31 02:22:50;;;;;;;11.23;7.07;;;;;;;17.01;70.59;98990.47;4778447;29;20048;-79
2022/08/31 02:25:17;;;;;;;10.32;7.72;;;;;;;17.08;70.79;99001.56;4785520;29;20057;-79
2022/08/31 02:27:44;;;;;;;14.90;7.40;;;;;;;17.06;71.14;99006.03;4785330;29;20059;-80
2022/08/31 02:30:15;;;;;;;12.95;7.50;;;;;;;17.04;71.07;99010.50;4791062;29;20062;-79
2022/08/31 02:32:41;;;;;;;11.93;7.35;;;;;;;16.92;71.13;98990.03;4788619;29;20046;-81
2022/08/31 02:35:09;;;;;;;15.32;7.32;;;;;;;16.97;71.34;98999.44;4787058;29;20592;-79
2022/08/31 02:37:36;;;;;;;14.23;7.43;;;;;;;16.96;71.31;98997.75;4777478;29;20203;-79
2022/08/31 02:40:06;;;;;;;12.93;7.07;;;;;;;16.76;71.54;98958.41;4785034;29;20047;-79
2022/08/31 02:42:32;;;;;;;10.32;7.32;;;;;;;16.93;71.58;98989.97;4779733;29;20063;-79
2022/08/31 02:44:59;;;;;;;10.82;7.40;;;;;;;16.92;71.90;98990.03;4772434;29;20050;-79
2022/08/31 02:47:26;;;;;;;14.18;7.07;;;;;;;17.00;71.89;99001.91;4784525;29;20043;-78
2022/08/31 02:50:24;;;;;;;10.80;7.32;;;;;;;16.97;71.95;99001.19;4772293;29;20058;-78
2022/08/31 02:52:52;;;;;;;13.60;7.10;;;;;;;17.00;72.07;99004.53;4791093;29;20047;-80
2022/08/31 02:55:18;;;;;;;9.43;6.57;;;;;;;17.00;71.97;99001.06;4788840;29;20039;-79
2022/08/31 02:57:44;;;;;;;10.65;7.00;;;;;;;16.98;71.95;99005.53;4784852;29;20075;-79
2022/08/31 03:00:11;;;;;;;12.60;7.28;;;;;;;16.98;72.13;99005.53;4782683;29;20051;-79
2022/08/31 03:02:38;;;;;;;11.23;7.53;;;;;;;16.88;72.25;98988.50;4771496;29;20047;-80
2022/08/31 03:05:06;;;;;;;10.93;7.35;;;;;;;16.96;72.20;98994.25;4785844;29;20071;-80
2022/08/31 03:07:36;;;;;;;11.93;7.15;;;;;;;16.97;71.94;99009.94;4779109;29;20057;-79
2022/08/31 03:10:09;;;;;;;14.98;7.28;;;;;;;16.97;72.64;98998.56;4784653;29;20137;-79
2022/08/31 03:12:36;;;;;;;12.75;6.97;;;;;;;16.94;72.63;98988.19;4782183;29;20053;-81
2022/08/31 03:15:05;;;;;;;11.18;6.70;;;;;;;16.83;72.62;98976.41;4790531;29;20043;-80
2022/08/31 03:17:32;;;;;;;13.13;7.30;;;;;;;16.96;72.72;98992.47;4800164;29;20104;-81
2022/08/31 03:20:03;;;;;;;10.57;7.43;;;;;;;16.96;72.60;98986.34;4782643;29;20069;-81
2022/08/31 03:22:31;;;;;;;12.38;7.43;;;;;;;17.08;72.71;99003.31;4786011;29;20097;-81
2022/08/31 03:24:57;;;;;;;11.00;7.05;;;;;;;16.98;72.61;98977.50;4786209;29;20126;-79
2022/08/31 03:27:24;;;;;;;10.00;6.43;;;;;;;17.13;72.79;98994.28;4776471;29;20067;-79
2022/08/31 03:29:53;;;;;;;12.80;6.70;;;;;;;17.15;72.63;98978.44;4782811;29;20047;-80
2022/08/31 03:32:29;;;;;;;10.35;6.80;;;;;;;17.14;72.42;98989.88;4788095;29;20138;-80
2022/08/31 03:34:58;;;;;;;11.63;7.15;;;;;;;17.24;72.42;98992.91;4783046;29;20058;-78
2022/08/31 03:37:25;;;;;;;10.18;6.50;;;;;;;17.22;72.59;98978.97;4777171;29;20051;-80
2022/08/31 03:39:55;;;;;;;12.80;6.70;;;;;;;17.26;72.82;98978.75;4775559;29;20058;-79
2022/08/31 03:42:25;;;;;;;9.82;6.28;;;;;;;17.25;72.44;98966.53;4779122;29;20112;-79
2022/08/31 03:44:57;;;;;;;12.75;6.88;;;;;;;17.38;72.57;98979.09;4772095;29;20130;-81
2022/08/31 03:47:29;;;;;;;14.77;6.75;;;;;;;17.45;72.40;98988.34;4798993;29;20063;-82
2022/08/31 03:49:56;;;;;;;11.85;6.57;;;;;;;17.43;72.62;98971.81;4777562;29;20077;-80
2022/08/31 03:52:33;;;;;;;13.18;7.32;;;;;;;17.55;72.26;98978.22;4783367;29;20408;-79
2022/08/31 03:55:05;;;;;;;8.52;6.22;;;;;;;17.60;72.00;98973.56;4781531;29;20085;-81
2022/08/31 03:57:31;;;;;;;12.15;6.50;;;;;;;17.66;72.37;98978.53;4775445;29;20532;-79
2022/08/31 03:59:57;;;;;;;9.60;6.30;;;;;;;17.73;71.96;98977.28;4781303;29;20067;-77
2022/08/31 04:02:39;;;;;;;13.95;6.65;;;;;;;17.85;71.64;98980.19;4804130;29;20080;-79
2022/08/31 04:05:41;;;;;;;12.05;5.95;;;;;;;17.90;71.67;98962.41;4756117;29;20062;-81
2022/08/31 04:08:14;;;;;;;6.78;5.78;;;;;;;18.08;71.45;98972.91;4793879;29;20039;-80
2022/08/31 04:11:06;;;;;;;8.77;6.47;;;;;;;18.06;71.13;98954.59;4786988;29;20051;-80
2022/08/31 04:13:33;;;;;;;9.85;6.47;;;;;;;18.29;70.98;98969.13;4779737;29;20050;-80
2022/08/31 04:16:21;;;;;;;12.82;6.18;;;;;;;18.41;70.62;98972.03;4803999;29;20043;-82
2022/08/31 04:19:07;;;;;;;7.90;6.05;;;;;;;18.54;70.39;98965.16;4787460;29;20051;-81
2022/08/31 04:21:39;;;;;;;12.02;6.65;;;;;;;18.74;70.07;98969.34;4780189;29;20058;-82
2022/08/31 04:24:09;;;;;;;13.00;6.43;;;;;;;18.81;69.81;98951.38;4805043;29;20058;-82
2022/08/31 04:26:39;;;;;;;11.32;6.45;;;;;;;18.94;69.08;98949.75;4798371;29;20039;-79
2022/08/31 04:29:06;;;;;;;11.10;5.90;;;;;;;19.14;69.07;98958.31;4804474;29;20516;-80
2022/08/31 04:31:34;;;;;;;10.13;5.05;;;;;;;19.33;68.67;98962.53;4766144;30;20044;-80
2022/08/31 04:34:01;;;;;;;12.00;6.68;;;;;;;19.34;68.03;98951.03;4780029;29;20051;-81
2022/08/31 04:36:32;;;;;;;8.30;5.97;;;;;;;19.52;67.94;98952.59;4762902;29;20043;-80
2022/08/31 04:39:00;;;;;;;9.77;6.07;;;;;;;19.71;67.14;98967.34;4797166;29;20062;-83
2022/08/31 04:41:29;;;;;;;12.73;5.90;;;;;;;19.78;66.81;98967.81;4765352;30;20074;-82
2022/08/31 04:43:57;;;;;;;8.82;5.72;;;;;;;19.82;66.75;98951.69;4807011;29;20047;-79
2022/08/31 04:46:25;;;;;;;9.45;5.68;;;;;;;19.94;66.27;98954.56;4803772;29;20093;-83
2022/08/31 04:48:52;;;;;;;13.88;5.53;;;;;;;19.97;65.68;98960.50;4773720;29;20043;-80
2022/08/31 04:51:23;;;;;;;10.02;5.25;;;;;;;20.01;65.52;98945.31;4789183;29;20534;-81
2022/08/31 04:53:54;;;;;;;9.02;5.20;;;;;;;20.23;65.30;98965.97;4793295;29;20043;-80
2022/08/31 04:56:27;;;;;;;12.77;5.63;;;;;;;20.31;65.24;98957.56;4759709;29;20097;-80
2022/08/31 04:58:59;;;;;;;7.97;5.60;;;;;;;20.47;64.49;98968.84;4787767;29;20086;-81
2022/08/31 05:01:30;;;;;;;10.25;6.15;;;;;;;20.68;64.08;98975.53;4787045;29;20496;-80
2022/08/31 05:04:30;;;;;;;6.50;4.70;;;;;;;20.74;63.78;98946.91;4786339;29;20039;-79
2022/08/31 05:06:58;;;;;;;6.38;4.95;;;;;;;21.00;63.45;98947.03;4786766;29;20522;-79
2022/08/31 05:09:24;;;;;;;11.90;5.32;;;;;;;21.64;62.85;98959.56;4786725;29;20504;-81
2022/08/31 05:11:54;;;;;;;9.05;4.47;;;;;;;22.80;62.96;98950.63;4775330;29;20518;-80
2022/08/31 05:14:23;;;;;;;8.25;4.63;;;;;;;24.61;60.76;98935.94;4771527;29;20093;-79
2022/08/31 05:16:56;;;;;;;7.90;4.30;;;;;;;26.33;57.47;98942.06;4783081;29;20047;-80
2022/08/31 05:19:24;;;;;;;8.10;4.30;;;;;;;27.89;53.91;98939.53;4801197;29;21473;-80
2022/08/31 05:21:50;;;;;;;6.55;4.30;;;;;;;29.10;49.74;98931.41;4790867;29;20051;-79
2022/08/31 05:24:21;;;;;;;6.43;4.55;;;;;;;29.91;46.24;98928.63;4771514;29;20404;-81
2022/08/31 05:26:50;;;;;;;7.50;4.07;;;;;;;30.10;44.71;98926.75;4782782;29;20046;-85
2022/08/31 05:29:20;;;;;;;6.68;4.00;;;;;;;30.42;42.30;98930.53;4796002;29;20047;-81
2022/08/31 05:31:49;;;;;;;5.97;4.20;;;;;;;29.25;42.08;98944.22;4793289;29;20112;-80
2022/08/31 05:34:16;;;;;;;7.93;4.20;;;;;;;27.69;41.97;98938.78;4800483;29;20142;-78
2022/08/31 05:36:49;;;;;;;8.52;4.63;;;;;;;26.41;44.14;98952.03;4793254;29;20078;-80
2022/08/31 05:39:16;;;;;;;7.97;4.05;;;;;;;25.37;46.12;98942.22;4817541;29;20049;-80
2022/08/31 05:41:46;;;;;;;10.07;4.20;;;;;;;24.74;47.02;98959.75;4804057;29;20551;-81
2022/08/31 05:44:14;;;;;;;6.45;4.03;;;;;;;24.27;47.99;98962.59;4824339;29;20081;-81
2022/08/31 05:46:42;;;;;;;6.03;4.05;;;;;;;23.99;48.27;98966.56;4798180;29;20042;-80
2022/08/31 05:49:10;;;;;;;7.10;4.20;;;;;;;23.67;49.21;98922.94;4801807;29;20072;-81
2022/08/31 05:51:38;;;;;;;8.10;4.10;;;;;;;23.67;50.06;98945.97;4779964;29;20107;-82
2022/08/31 05:54:09;;;;;;;6.18;3.90;;;;;;;23.75;49.97;98925.81;4773866;29;20047;-79
2022/08/31 05:56:39;;;;;;;7.93;4.03;;;;;;;23.73;49.95;98930.41;4764607;29;20046;-82
2022/08/31 05:59:06;;;;;;;7.13;4.10;;;;;;;23.78;49.93;98969.91;4783680;29;20063;-80
2022/08/31 06:01:35;;;;;;;7.00;4.38;;;;;;;23.63;50.02;98971.94;4785234;29;20047;-81
2022/08/31 06:04:20;;;;;;;6.95;4.47;;;;;;;23.09;51.25;98955.53;4787086;29;20046;-81
2022/08/31 06:06:46;;;;;;;9.65;4.47;;;;;;;23.01;51.40;98976.50;4786617;29;20054;-81
2022/08/31 06:09:14;;;;;;;10.63;4.50;;;;;;;22.63;52.21;98970.41;4772368;29;20055;-80
2022/08/31 06:11:42;;;;;;;8.32;4.68;;;;;;;22.74;52.82;98984.66;4765693;29;20113;-82
2022/08/31 06:14:12;;;;;;;5.70;4.45;;;;;;;23.00;52.91;98982.78;4796102;29;20611;-80
2022/08/31 06:16:43;;;;;;;7.75;4.53;;;;;;;24.02;52.22;98950.41;4757563;29;21076;-82
2022/08/31 06:19:12;;;;;;;7.57;4.85;;;;;;;24.16;50.23;98967.91;4787604;29;20389;-80
2022/08/31 06:21:42;;;;;;;4.97;4.13;;;;;;;23.62;50.60;98964.91;4781379;29;20047;-82
2022/08/31 06:24:09;;;;;;;8.13;4.40;;;;;;;23.19;51.33;98968.13;4771295;29;20108;-82
2022/08/31 06:26:38;;;;;;;7.50;4.30;;;;;;;22.79;51.87;98979.88;4755934;29;20055;-79
2022/08/31 06:29:11;;;;;;;8.20;4.57;;;;;;;22.25;52.21;98998.63;4772012;29;20043;-80
2022/08/31 06:31:46;;;;;;;13.63;4.60;;;;;;;21.75;53.69;98987.09;4783110;29;20064;-80
2022/08/31 06:34:16;;;;;;;7.20;4.50;;;;;;;21.56;54.40;99000.72;4802517;29;20035;-78
2022/08/31 06:37:02;;;;;;;10.35;4.55;;;;;;;21.29;54.45;98997.16;4799162;29;20047;-81
2022/08/31 06:39:41;;;;;;;7.60;4.15;;;;;;;21.05;55.49;98995.19;4790509;29;20082;-78
2022/08/31 06:42:10;;;;;;;10.77;4.03;;;;;;;20.81;55.44;98986.19;4797372;29;20055;-83
2022/08/31 06:44:55;;;;;;;11.52;4.55;;;;;;;20.61;55.81;98988.28;4795003;29;20046;-81
2022/08/31 06:47:33;;;;;;;8.15;4.28;;;;;;;20.59;56.54;99006.03;4764597;29;20115;-80
2022/08/31 06:50:02;;;;;;;13.20;4.20;;;;;;;20.47;56.77;99010.28;4781030;29;20511;-79
2022/08/31 06:52:31;;;;;;;13.20;4.30;;;;;;;20.47;56.98;99021.69;4757710;30;20044;-80
2022/08/31 06:55:11;;;;;;;8.13;4.18;;;;;;;20.40;56.67;99020.41;4770741;29;20206;-84
2022/08/31 06:57:59;;;;;;;8.15;4.10;;;;;;;20.22;57.40;99011.81;4796039;29;20088;-81
2022/08/31 07:00:40;;;;;;;8.48;3.78;;;;;;;19.93;57.62;98974.00;4803633;29;20023;-79
2022/08/31 07:03:32;;;;;;;7.05;4.18;;;;;;;20.13;57.63;99018.50;4801710;29;20063;-80
2022/08/31 07:06:14;;;;;;;10.13;4.50;;;;;;;20.15;58.24;99027.19;4793114;29;20043;-82
2022/08/31 07:08:40;;;;;;;11.23;4.40;;;;;;;20.10;58.43;99018.69;4803105;29;20043;-83
2022/08/31 07:11:19;;;;;;;8.52;4.18;;;;;;;20.19;58.39;99029.66;4803012;29;20230;-82
2022/08/31 07:13:47;;;;;;;6.10;4.20;;;;;;;20.24;58.84;99019.63;4781149;29;20054;-81
2022/08/31 07:16:16;;;;;;;11.65;3.85;;;;;;;20.44;58.25;99027.16;4777215;29;20058;-79
2022/08/31 07:18:48;;;;;;;7.32;3.72;;;;;;;20.01;57.81;98962.00;4769252;29;20050;-82
2022/08/31 07:21:19;;;;;;;5.75;3.63;;;;;;;20.44;58.16;99031.63;4789112;29;20423;-81
2022/08/31 07:23:47;;;;;;;6.57;3.45;;;;;;;20.51;57.96;99029.44;4784405;29;20059;-83
2022/08/31 07:26:24;;;;;;;7.57;3.65;;;;;;;20.83;57.63;99031.88;4789325;29;20134;-82
2022/08/31 07:28:52;;;;;;;7.00;3.47;;;;;;;21.37;57.54;99031.88;4770614;29;20051;-80
2022/08/31 07:31:22;;;;;;;5.38;3.28;;;;;;;21.91;56.23;99027.47;4794500;29;20047;-81
2022/08/31 07:33:54;;;;;;;4.43;3.25;;;;;;;22.63;55.44;99019.91;4768960;29;20063;-78
2022/08/31 07:36:21;;;;;;;;;;;;;;;23.33;53.63;99021.06;4791877;29;20065;-81
2022/08/31 07:44:30;;;;;;;6.72;2.47;;;;;;;25.70;47.50;99017.59;4804447;29;20049;-80
2022/08/31 07:46:57;;;;;;;5.75;3.10;;;;;;;25.78;46.62;99007.13;4794952;29;20173;-81
2022/08/31 07:49:25;;;;;;;3.35;2.17;;;;;;;25.71;45.08;99003.28;4798165;29;20043;-79
2022/08/31 07:52:22;;;;;;;5.95;2.25;;;;;;;25.21;45.33;99012.72;4788921;29;20043;-82
2022/08/31 07:55:10;;;;;;;5.13;2.17;;;;;;;24.55;45.95;98962.19;4786535;29;20483;-80
2022/08/31 07:57:59;;;;;;;4.15;2.13;;;;;;;24.77;46.22;98988.75;4773765;29;20085;-80
2022/08/31 08:00:31;;;;;;;4.82;2.67;;;;;;;24.85;45.30;98990.78;4777128;30;20535;-82
2022/08/31 08:03:06;;;;;;;5.93;3.47;;;;;;;24.72;46.12;99000.75;4764595;29;20065;-80
2022/08/31 08:05:46;;;;;;;5.22;2.53;;;;;;;24.78;45.89;98989.63;4808303;29;20042;-79
2022/08/31 08:08:34;;;;;;;5.63;2.85;;;;;;;24.58;45.71;99015.97;4791622;29;20055;-81
2022/08/31 08:11:16;;;;;;;3.50;2.55;;;;;;;24.25;45.59;98979.63;4791641;29;20423;-82
2022/08/31 08:13:57;;;;;;;3.70;2.30;;;;;;;24.12;46.13;98999.19;4801323;29;20495;-82
2022/08/31 08:16:47;;;;;;;4.38;2.45;;;;;;;23.37;46.59;98936.75;4826262;29;20108;-84
2022/08/31 08:19:38;;;;;;;4.07;2.30;;;;;;;23.47;46.16;99001.44;4795037;29;20111;-84
2022/08/31 08:22:04;;;;;;;3.35;2.20;;;;;;;23.19;47.02;98998.16;4800281;29;20059;-83
2022/08/31 08:24:46;;;;;;;4.00;2.22;;;;;;;22.90;47.46;99017.09;4791863;29;20043;-83
2022/08/31 08:27:38;;;;;;;6.78;2.42;;;;;;;22.67;47.98;99016.94;4797666;29;20051;-83
2022/08/31 08:30:22;;;;;;;3.97;2.53;;;;;;;22.52;48.45;99024.19;4778701;29;20054;-83
2022/08/31 08:32:49;;;;;;;2.95;2.53;;;;;;;22.17;48.97;98976.28;4797765;29;20051;-84
2022/08/31 08:35:33;;;;;;;4.57;2.20;;;;;;;22.06;49.20;98972.59;4804848;29;20122;-86
2022/08/31 08:38:01;;;;;;;3.47;2.30;;;;;;;22.01;49.48;98976.50;4803528;29;20055;-83
2022/08/31 08:40:40;;;;;;;3.08;2.00;;;;;;;21.81;49.76;98965.50;4791769;29;20078;-85
2022/08/31 08:43:14;;;;;;;3.17;2.35;;;;;;;21.87;50.03;98985.41;4804189;29;20126;-85
2022/08/31 08:46:07;;;;;;;4.75;2.35;;;;;;;21.82;50.55;98988.38;4778449;29;20108;-83
2022/08/31 08:48:40;;;;;;;6.28;2.50;;;;;;;21.93;50.49;99011.47;4808559;29;20051;-80
2022/08/31 08:51:32;;;;;;;8.52;2.30;;;;;;;21.95;50.60;99020.16;4796581;29;20043;-82
2022/08/31 08:54:09;;;;;;;5.57;2.17;;;;;;;21.84;51.05;99025.34;4801248;29;20046;-83
2022/08/31 08:56:46;;;;;;;2.65;2.10;;;;;;;21.58;50.92;99023.47;4807307;29;20058;-84
2022/08/31 08:59:15;;;;;;;7.07;2.40;;;;;;;21.37;52.03;99031.03;4789930;29;20070;-80
2022/08/31 09:01:46;;;;;;;5.32;2.42;;;;;;;21.34;52.36;99037.38;4784641;29;20152;-80
2022/08/31 09:04:20;;;;;;;6.05;2.30;;;;;;;21.40;52.64;99038.78;4805542;29;20108;-84
2022/08/31 09:07:23;;;;;;;4.70;1.85;;;;;;;21.59;52.34;99037.56;4790192;29;20063;-86
2022/08/31 09:10:08;;;;;;;5.30;2.13;;;;;;;21.79;52.66;99030.94;4770471;29;20444;-84
2022/08/31 09:12:51;;;;;;;4.13;2.50;;;;;;;21.98;52.03;99041.13;4775024;29;20046;-83
2022/08/31 09:15:35;;;;;;;6.18;2.50;;;;;;;22.35;51.81;99033.28;4776244;29;20100;-83
2022/08/31 09:18:38;;;;;;;2.70;1.40;;;;;;;22.41;50.44;99018.75;4787802;29;21849;-82
2022/08/31 09:21:16;;;;;;;6.68;1.65;;;;;;;22.48;50.80;99006.78;4801643;29;20043;-81
2022/08/31 09:23:48;;;;;;;4.35;1.92;;;;;;;22.66;49.96;99025.84;4768251;29;20086;-83
2022/08/31 09:26:16;;;;;;;4.50;2.22;;;;;;;22.71;49.67;99014.91;4784800;29;20066;-81
2022/08/31 09:29:07;;;;;;;4.18;2.03;;;;;;;22.65;48.76;98996.78;4789299;29;20059;-81
2022/08/31 09:31:45;;;;;;;2.47;1.65;;;;;;;22.76;49.07;99018.06;4793029;29;20039;-80
2022/08/31 09:34:30;;;;;;;1.88;1.58;;;;;;;22.81;49.06;99023.91;4801924;29;20192;-82
2022/08/31 09:37:20;;;;;;;3.55;1.70;;;;;;;22.85;48.69;99035.97;4796392;29;20039;-80
2022/08/31 09:39:49;;;;;;;4.18;1.60;;;;;;;22.56;49.24;99017.72;4780333;29;20047;-81
2022/08/31 09:42:22;;;;;;;3.15;1.50;;;;;;;22.45;49.28;99044.09;4803351;29;20114;-81
2022/08/31 09:44:49;;;;;;;1.83;1.38;;;;;;;22.13;49.71;99031.28;4796575;29;20054;-82
2022/08/31 09:47:54;;;;;;;2.85;1.45;;;;;;;22.05;50.10;99041.56;4803279;29;20047;-78
2022/08/31 09:50:34;;;;;;;3.33;1.70;;;;;;;21.91;49.62;99040.72;4763326;30;20056;-79
2022/08/31 09:56:27;;;;;;;5.03;1.80;;;;;;;21.87;50.31;99059.53;4788244;29;20115;-82
2022/08/31 09:59:01;;;;;;;5.97;1.30;;;;;;;22.03;50.43;99054.06;4783530;29;20098;-79
2022/08/31 10:01:45;;;;;;;3.10;1.55;;;;;;;22.34;49.94;99047.47;4788996;29;20050;-83
2022/08/31 10:04:26;;;;;;;2.72;1.67;;;;;;;22.85;49.67;99045.72;4795382;29;20068;-80
2022/08/31 10:07:27;;;;;;;2.33;1.50;;;;;;;23.09;48.35;99043.09;4799098;29;20043;-78
2022/08/31 10:10:07;;;;;;;4.77;1.43;;;;;;;22.95;48.23;99051.22;4790362;29;20100;-78
2022/08/31 10:12:44;;;;;;;4.80;1.92;;;;;;;22.85;48.54;99045.72;4789795;29;20534;-79
2022/08/31 10:15:20;;;;;;;3.40;1.73;;;;;;;22.78;48.66;99044.47;4788643;29;20051;-83
2022/08/31 10:18:17;;;;;;;3.10;1.50;;;;;;;22.71;48.35;99055.53;4782737;29;20043;-78
2022/08/31 10:20:50;;;;;;;4.75;1.65;;;;;;;22.64;48.20;99048.97;4777125;29;20161;-81
2022/08/31 10:23:26;;;;;;;3.67;1.60;;;;;;;22.62;48.41;99055.34;4792595;29;20053;-79
2022/08/31 10:26:02;;;;;;;2.92;1.20;;;;;;;22.54;48.41;99048.78;4767471;29;20047;-81
2022/08/31 10:28:50;;;;;;;5.47;1.58;;;;;;;22.52;48.66;99057.78;4774104;29;20046;-79
2022/08/31 10:31:30;;;;;;;2.85;1.40;;;;;;;22.40;48.29;99038.25;4756353;29;20508;-79
2022/08/31 10:37:07;;;;;;;6.30;1.80;;;;;;;22.40;48.40;99041.75;4762256;29;20094;-82
2022/08/31 10:39:46;;;;;;;3.33;2.10;;;;;;;22.48;48.34;99054.50;4789479;29;20051;-82
2022/08/31 10:42:20;;;;;;;5.05;1.52;;;;;;;22.45;48.34;99048.56;4795416;29;20051;-78
2022/08/31 10:44:57;;;;;;;4.93;1.55;;;;;;;22.36;48.42;99048.22;4797325;29;20110;-80
2022/08/31 10:47:27;;;;;;;4.20;1.70;;;;;;;22.47;48.46;99047.50;4795730;29;20051;-81
2022/08/31 10:50:03;;;;;;;4.57;1.55;;;;;;;22.65;48.81;99049.81;4776321;29;20508;-79
2022/08/31 10:52:33;;;;;;;3.28;1.50;;;;;;;22.94;48.30;99045.09;4771061;29;20122;-79
2022/08/31 10:55:17;;;;;;;4.18;1.92;;;;;;;23.21;47.77;99040.50;4786985;29;20035;-79
2022/08/31 10:58:18;;;;;;;3.08;1.40;;;;;;;23.28;47.13;99041.81;4763769;29;20062;-79
2022/08/31 11:00:55;;;;;;;5.25;1.98;;;;;;;23.23;47.28;99046.59;4786639;29;20055;-80
2022/08/31 11:04:07;;;;;;;7.20;1.70;;;;;;;23.11;47.19;99029.72;4797845;29;20493;-79
2022/08/31 11:06:42;;;;;;;2.38;1.60;;;;;;;22.98;47.43;99037.75;4785323;29;20047;-80
2022/08/31 11:09:24;;;;;;;2.58;1.65;;;;;;;22.59;47.57;99040.47;4776426;29;20074;-79
2022/08/31 11:12:05;;;;;;;4.03;1.88;;;;;;;22.24;48.84;99044.63;4788562;29;20051;-79
2022/08/31 11:14:52;;;;;;;6.80;1.85;;;;;;;22.09;49.76;99049.19;4765837;29;20055;-81
2022/08/31 11:17:33;;;;;;;3.08;1.83;;;;;;;22.01;50.44;99061.25;4800063;29;20137;-78
2022/08/31 11:20:08;;;;;;;5.10;2.10;;;;;;;21.92;50.68;99065.38;4790237;29;20090;-82
2022/08/31 11:22:38;;;;;;;3.58;1.70;;;;;;;21.91;51.36;99071.63;4793508;29;20051;-79
2022/08/31 11:25:32;;;;;;;2.72;1.90;;;;;;;21.84;52.61;99084.44;4804938;29;20099;-82
2022/08/31 11:28:08;;;;;;;2.17;1.88;;;;;;;21.83;53.29;99088.03;4794066;29;20061;-80
2022/08/31 11:30:43;;;;;;;2.03;1.40;;;;;;;22.00;54.04;99086.03;4770274;30;20524;-81
2022/08/31 11:33:18;;;;;;;2.47;1.30;;;;;;;21.95;54.88;99097.81;4784555;30;20098;-82
2022/08/31 11:36:09;;;;;;;3.15;1.40;;;;;;;22.01;54.50;99078.00;4791712;29;20117;-79
2022/08/31 11:39:01;;;;;;;3.55;1.40;;;;;;;22.38;54.55;99080.75;4792432;29;20058;-82
2022/08/31 11:41:37;;;;;;;1.92;1.70;;;;;;;22.56;54.48;99083.13;4779752;29;20055;-82
2022/08/31 11:44:15;;;;;;;2.95;1.90;;;;;;;22.68;53.42;99063.72;4787070;29;20055;-85
2022/08/31 11:47:00;;;;;;;3.53;1.60;;;;;;;22.71;53.58;99041.41;4768921;29;20047;-80
2022/08/31 11:49:42;;;;;;;2.53;2.20;;;;;;;23.10;52.93;99086.41;4775400;29;20058;-81
2022/08/31 11:52:34;;;;;;;3.25;2.10;;;;;;;22.57;51.93;99034.44;4789600;29;20043;-82
2022/08/31 11:55:28;;;;;;;2.22;1.90;;;;;;;21.94;52.72;99019.31;4778583;29;20046;-80
2022/08/31 11:58:06;;;;;;;3.78;2.08;;;;;;;22.06;53.51;99102.38;4796488;29;20119;-82
2022/08/31 12:01:03;;;;;;;3.95;1.90;;;;;;;21.80;53.65;99099.69;4772808;30;20104;-82
2022/08/31 12:03:37;;;;;;;;;;;;;;;21.31;53.89;99103.72;4785631;29;20043;-84
2022/08/31 12:06:09;;;;;;;3.92;1.77;;;;;;;20.62;55.25;99056.88;4774690;29;19964;-83
2022/08/31 12:08:50;;;;;;;3.85;1.85;;;;;;;20.63;55.96;99107.97;4772191;30;20586;-81
2022/08/31 12:11:39;;;;;;;3.53;1.75;;;;;;;20.53;56.19;99105.00;4790722;29;20143;-80
2022/08/31 12:14:05;;;;;;;6.18;1.80;;;;;;;20.27;56.50;99080.19;4786921;29;20069;-82
2022/08/31 12:16:43;;;;;;;5.07;1.85;;;;;;;20.32;56.56;99112.47;4780446;29;20078;-81
2022/08/31 12:25:53;;;;;;;4.32;2.05;;;;;;;20.74;56.73;99102.00;4789268;29;20047;-82